Time;durP1;ratioP1;P1;durP2;ratioP2;P2;SDS_P1;SDS_P2;PMS_P1;PMS_P2;Temp;Humidity;BMP_temperature;BMP_pressure;BME280_temperature;BME280_humidity;BME280_pressure;Samples;Min_cycle;Max_cycle;Signal;HPM_P1;HPM_P2
2022/04/16 00:01:12;;;;;;;1.40;1.27;;;;;;;18.14;45.55;103119.28;5146860;27;20031;-50
2022/04/16 00:03:37;;;;;;;1.35;1.25;;;;;;;18.14;45.30;103123.81;5146501;27;20038;-50
2022/04/16 00:06:03;;;;;;;1.50;1.40;;;;;;;18.14;45.48;103118.44;5146899;27;20031;-52
2022/04/16 00:08:29;;;;;;;1.55;1.30;;;;;;;18.13;45.28;103112.16;5146345;27;20027;-50
2022/04/16 00:10:55;;;;;;;1.50;1.40;;;;;;;18.13;45.48;103114.00;5146854;27;20015;-51
2022/04/16 00:13:22;;;;;;;2.22;1.60;;;;;;;18.11;45.30;103114.13;5146101;27;20023;-51
2022/04/16 00:15:52;;;;;;;1.50;1.40;;;;;;;18.11;45.56;103121.34;5147003;27;20031;-50
2022/04/16 00:18:18;;;;;;;1.90;1.50;;;;;;;18.11;45.54;103130.28;5128332;27;20019;-50
2022/04/16 00:20:44;;;;;;;2.17;1.55;;;;;;;18.10;45.52;103120.47;5146346;27;20026;-48
2022/04/16 00:23:10;;;;;;;1.38;1.27;;;;;;;18.10;45.44;103128.56;5146107;27;20027;-48
2022/04/16 00:25:35;;;;;;;1.55;1.45;;;;;;;18.10;45.49;103119.63;5146573;27;20020;-52
2022/04/16 00:28:02;;;;;;;1.48;1.30;;;;;;;18.09;45.26;103117.88;5146154;27;20031;-51
2022/04/16 00:30:27;;;;;;;1.83;1.52;;;;;;;18.07;45.43;103112.63;5146643;27;20034;-53
2022/04/16 00:32:55;;;;;;;1.98;1.77;;;;;;;18.07;45.47;103118.00;5146324;27;20023;-49
2022/04/16 00:35:21;;;;;;;1.50;1.40;;;;;;;18.07;45.30;103118.00;5146264;27;20034;-51
2022/04/16 00:37:46;;;;;;;1.38;1.25;;;;;;;18.06;45.19;103112.75;5146192;27;20548;-53
2022/04/16 00:40:12;;;;;;;1.60;1.20;;;;;;;18.06;45.17;103113.59;5144792;27;20043;-49
2022/04/16 00:42:39;;;;;;;1.33;1.23;;;;;;;18.06;45.18;103115.44;5145674;27;20091;-51
2022/04/16 00:45:05;;;;;;;1.60;1.50;;;;;;;18.05;45.15;103116.38;5146115;27;20026;-50
2022/04/16 00:47:30;;;;;;;2.22;1.40;;;;;;;18.04;45.29;103112.81;5146010;27;20039;-52
2022/04/16 00:49:56;;;;;;;1.63;1.52;;;;;;;18.03;45.07;103121.03;5145818;27;20031;-51
2022/04/16 00:52:21;;;;;;;1.52;1.40;;;;;;;18.02;45.02;103120.16;5144683;27;20110;-51
2022/04/16 00:54:48;;;;;;;1.73;1.60;;;;;;;17.99;45.14;103113.16;5145965;27;20056;-51
2022/04/16 00:57:14;;;;;;;1.58;1.30;;;;;;;18.00;45.41;103122.09;5127247;27;20097;-49
2022/04/16 00:59:39;;;;;;;2.03;1.52;;;;;;;18.00;45.31;103127.47;5144814;27;20023;-50
2022/04/16 01:02:04;;;;;;;1.50;1.35;;;;;;;17.98;45.35;103119.50;5145808;27;20027;-51
2022/04/16 01:04:30;;;;;;;1.38;1.27;;;;;;;17.98;45.15;103124.91;5145605;27;20047;-50
2022/04/16 01:06:56;;;;;;;1.58;1.40;;;;;;;17.94;45.05;103112.63;5145761;27;20038;-48
2022/04/16 01:09:21;;;;;;;1.65;1.40;;;;;;;17.97;44.96;103127.72;5145439;27;20030;-53
2022/04/16 01:11:47;;;;;;;2.85;2.13;;;;;;;17.97;45.18;103125.03;5126890;27;20049;-46
2022/04/16 01:14:12;;;;;;;1.98;1.88;;;;;;;17.97;45.35;103133.09;5145164;27;20030;-51
2022/04/16 01:16:37;;;;;;;1.70;1.60;;;;;;;17.92;45.19;103128.00;5134124;27;20019;-53
2022/04/16 01:19:03;;;;;;;1.83;1.60;;;;;;;17.95;45.09;103127.81;5124565;28;20051;-50
2022/04/16 01:21:28;;;;;;;1.48;1.38;;;;;;;17.94;45.19;103139.53;5125025;28;20015;-49
2022/04/16 01:23:53;;;;;;;1.75;1.50;;;;;;;17.95;45.14;103135.00;5124973;28;20087;-50
2022/04/16 01:26:19;;;;;;;1.50;1.40;;;;;;;17.90;45.14;103135.34;5124837;28;20053;-50
2022/04/16 01:28:44;;;;;;;1.75;1.65;;;;;;;17.92;45.08;103135.22;5124118;28;20553;-50
2022/04/16 01:31:09;;;;;;;1.60;1.50;;;;;;;17.92;44.98;103136.09;5124831;28;20020;-51
2022/04/16 01:33:35;;;;;;;1.70;1.50;;;;;;;17.92;44.92;103146.00;5124549;28;20027;-51
2022/04/16 01:36:00;;;;;;;1.67;1.50;;;;;;;17.91;44.93;103144.28;5124577;28;20430;-51
2022/04/16 01:38:26;;;;;;;1.60;1.50;;;;;;;17.91;44.92;103153.22;5129116;27;20045;-49
2022/04/16 01:40:55;;;;;;;1.42;1.30;;;;;;;17.91;44.87;103145.13;5126628;27;20043;-52
2022/04/16 01:43:20;;;;;;;1.60;1.50;;;;;;;17.88;44.81;103145.38;5144289;27;20038;-45
2022/04/16 01:45:48;;;;;;;1.42;1.33;;;;;;;17.90;44.91;103156.88;5144919;27;20027;-53
2022/04/16 01:48:13;;;;;;;1.45;1.35;;;;;;;17.89;44.81;103163.22;5145072;27;20023;-53
2022/04/16 01:50:40;;;;;;;1.70;1.60;;;;;;;17.88;45.04;103155.25;5144832;27;20072;-47
2022/04/16 01:53:06;;;;;;;1.40;1.30;;;;;;;17.89;45.01;103159.69;5144692;27;20491;-47
2022/04/16 01:55:31;;;;;;;1.80;1.70;;;;;;;17.88;44.90;103152.56;5144909;27;20031;-49
2022/04/16 01:57:56;;;;;;;1.58;1.42;;;;;;;17.87;45.02;103154.38;5144418;27;20027;-49
2022/04/16 02:00:23;;;;;;;1.60;1.50;;;;;;;17.87;44.90;103156.22;5144838;27;20035;-49
2022/04/16 02:02:48;;;;;;;1.83;1.70;;;;;;;17.86;44.80;103155.38;5144675;27;20038;-51
2022/04/16 02:05:13;;;;;;;1.55;1.45;;;;;;;17.85;44.94;103152.78;5144455;27;20053;-50
2022/04/16 02:07:39;;;;;;;1.35;1.25;;;;;;;17.84;44.74;103153.72;5144387;27;20027;-48
2022/04/16 02:10:05;;;;;;;1.52;1.42;;;;;;;17.86;44.69;103159.88;5144519;27;20023;-49
2022/04/16 02:12:30;;;;;;;1.40;1.30;;;;;;;17.85;44.79;103156.34;5144285;27;20027;-53
2022/04/16 02:14:55;;;;;;;1.60;1.50;;;;;;;17.83;44.61;103160.94;5144605;27;20023;-50
2022/04/16 02:17:21;;;;;;;1.60;1.50;;;;;;;17.84;44.59;103161.81;5144544;28;20110;-48
2022/04/16 02:19:48;;;;;;;1.90;1.50;;;;;;;17.79;44.57;103153.19;5144181;28;20065;-48
2022/04/16 02:22:14;;;;;;;1.40;1.30;;;;;;;17.83;45.18;103165.47;5144349;28;20030;-51
2022/04/16 02:24:39;;;;;;;1.67;1.58;;;;;;;17.82;44.54;103164.63;5144414;28;20031;-50
2022/04/16 02:27:05;;;;;;;1.40;1.30;;;;;;;17.79;44.60;103170.19;5143896;28;20034;-48
2022/04/16 02:29:31;;;;;;;1.23;1.13;;;;;;;17.80;44.62;103166.56;5144611;28;20083;-51
2022/04/16 02:31:57;;;;;;;1.60;1.50;;;;;;;17.79;44.74;103170.19;5126036;28;20091;-52
2022/04/16 02:34:22;;;;;;;1.52;1.42;;;;;;;17.80;44.58;103168.38;5144069;28;20030;-52
2022/04/16 02:36:47;;;;;;;1.67;1.58;;;;;;;17.79;44.56;103166.66;5144413;28;20034;-48
2022/04/16 02:39:14;;;;;;;1.60;1.50;;;;;;;17.78;44.76;103165.78;5143597;28;20047;-51
2022/04/16 02:41:40;;;;;;;1.85;1.42;;;;;;;17.78;44.73;103163.09;5144591;28;20050;-49
2022/04/16 02:44:05;;;;;;;1.75;1.65;;;;;;;17.77;44.70;103171.28;5143629;28;20632;-53
2022/04/16 02:49:15;;;;;;;2.20;1.60;;;;;;;17.76;44.78;103166.88;5144046;28;20056;-50
2022/04/16 02:51:40;;;;;;;1.55;1.45;;;;;;;17.76;44.68;103169.59;5144133;27;20023;-49
2022/04/16 02:54:05;;;;;;;1.58;1.42;;;;;;;17.74;44.64;103175.91;5144160;28;20038;-49
2022/04/16 02:56:31;;;;;;;1.20;1.10;;;;;;;17.73;44.68;103176.00;5144382;28;20023;-49
2022/04/16 02:58:57;;;;;;;1.70;1.60;;;;;;;17.72;44.79;103174.28;5143883;27;20020;-54
2022/04/16 03:01:23;;;;;;;1.50;1.40;;;;;;;17.72;44.41;103183.22;5143951;28;20042;-52
2022/04/16 03:03:48;;;;;;;1.63;1.52;;;;;;;17.71;44.48;103183.28;5146650;27;20045;-53
2022/04/16 03:06:13;;;;;;;1.50;1.40;;;;;;;17.67;44.35;103181.78;5147872;27;20091;-53
2022/04/16 03:08:39;;;;;;;1.67;1.58;;;;;;;17.71;44.36;103191.34;5147490;27;20104;-48
2022/04/16 03:11:04;;;;;;;2.85;1.77;;;;;;;17.70;44.46;103184.25;5148024;27;20038;-53
2022/04/16 03:13:30;;;;;;;1.70;1.60;;;;;;;17.70;44.36;103184.25;5147410;27;20027;-51
2022/04/16 03:18:39;;;;;;;1.58;1.38;;;;;;;17.65;44.37;103184.59;5147926;27;20045;-50
2022/04/16 03:21:05;;;;;;;1.50;1.40;;;;;;;17.67;44.51;103184.47;5147439;27;20015;-51
2022/04/16 03:23:30;;;;;;;1.42;1.33;;;;;;;17.67;44.51;103190.72;5147660;27;20386;-51
2022/04/16 03:26:00;;;;;;;1.40;1.30;;;;;;;17.64;44.56;103193.63;5147781;27;20031;-52
2022/04/16 03:28:25;;;;;;;2.15;1.50;;;;;;;17.64;44.46;103193.63;5147213;27;20103;-51
2022/04/16 03:30:51;;;;;;;1.33;1.23;;;;;;;17.66;44.24;103198.88;5147792;27;20034;-50
2022/04/16 03:33:16;;;;;;;1.50;1.40;;;;;;;17.64;44.24;103193.63;5147491;27;20023;-54
2022/04/16 03:35:41;;;;;;;1.50;1.40;;;;;;;17.64;44.40;103198.16;5128714;27;20027;-52
2022/04/16 03:38:06;;;;;;;2.00;1.80;;;;;;;17.65;44.42;103197.19;5146508;27;20037;-50
2022/04/16 03:40:32;;;;;;;1.67;1.58;;;;;;;17.63;44.47;103205.38;5147528;27;20080;-50
2022/04/16 03:42:58;;;;;;;1.52;1.42;;;;;;;17.63;44.49;103205.38;5146786;27;20468;-49
2022/04/16 03:45:27;;;;;;;1.70;1.60;;;;;;;17.63;44.43;103201.81;5147355;27;20055;-50
2022/04/16 03:47:53;;;;;;;1.52;1.42;;;;;;;17.61;44.32;103204.59;5147382;27;20027;-49
2022/04/16 03:50:20;;;;;;;1.63;1.50;;;;;;;17.59;44.16;103200.28;5146850;27;20087;-48
2022/04/16 03:52:46;;;;;;;1.50;1.35;;;;;;;17.61;44.33;103207.28;5147002;27;20027;-51
2022/04/16 04:00:46;;;;;;;1.80;1.50;;;;;;;17.60;44.07;103219.00;5131431;27;20034;-52
2022/04/16 04:03:12;;;;;;;1.50;1.40;;;;;;;17.59;44.10;103219.97;5146948;27;20051;-48
2022/04/16 04:05:38;;;;;;;1.60;1.42;;;;;;;17.58;44.38;103218.22;5146786;27;20131;-52
2022/04/16 04:08:07;;;;;;;1.60;1.50;;;;;;;17.59;44.01;103233.44;5146371;27;20414;-52
2022/04/16 04:10:33;;;;;;;1.60;1.50;;;;;;;17.58;44.12;103236.22;5147492;27;20031;-48
2022/04/16 04:12:58;;;;;;;2.35;2.08;;;;;;;17.59;44.20;103232.56;5146469;27;20100;-49
2022/04/16 04:15:24;;;;;;;1.63;1.52;;;;;;;17.58;44.03;103233.53;5145672;27;20701;-53
2022/04/16 04:17:50;;;;;;;1.58;1.48;;;;;;;17.58;44.15;103237.06;5146970;27;20483;-49
2022/04/16 04:20:16;;;;;;;1.65;1.55;;;;;;;17.57;43.95;103238.03;5146364;27;20038;-47
2022/04/16 04:22:41;;;;;;;1.60;1.50;;;;;;;17.56;44.08;103241.69;5128190;27;20019;-49
2022/04/16 04:25:06;;;;;;;1.40;1.30;;;;;;;17.55;44.11;103242.69;5146739;27;20023;-50
2022/04/16 04:27:32;;;;;;;1.85;1.52;;;;;;;17.56;44.02;103247.09;5146138;27;20027;-51
2022/04/16 04:30:01;;;;;;;1.60;1.50;;;;;;;17.55;43.98;103250.75;5146618;27;20027;-50
2022/04/16 04:32:26;;;;;;;1.50;1.40;;;;;;;17.56;44.28;103256.97;5146447;27;20082;-49
2022/04/16 04:34:51;;;;;;;1.77;1.60;;;;;;;17.54;44.21;103251.69;5146062;27;20023;-51
2022/04/16 04:37:17;;;;;;;1.75;1.30;;;;;;;17.55;44.04;103260.66;5146049;27;20023;-51
2022/04/16 04:39:42;;;;;;;2.20;1.63;;;;;;;17.54;43.77;103253.53;5145385;27;20065;-48
2022/04/16 04:42:07;;;;;;;1.50;1.40;;;;;;;17.53;44.05;103255.34;5145927;27;20474;-47
2022/04/16 04:44:32;;;;;;;1.88;1.45;;;;;;;17.53;43.98;103263.41;5146114;27;20026;-49
2022/04/16 04:46:57;;;;;;;1.98;1.60;;;;;;;17.53;43.85;103263.41;5145598;27;20065;-48
2022/04/16 04:49:23;;;;;;;1.60;1.50;;;;;;;17.54;43.84;103259.75;5142168;27;20027;-51
2022/04/16 04:51:48;;;;;;;2.15;1.70;;;;;;;17.54;44.00;103273.19;5142530;27;20019;-51
2022/04/16 04:54:14;;;;;;;1.65;1.30;;;;;;;17.54;43.99;103267.81;5142068;27;20048;-51
2022/04/16 04:56:39;;;;;;;1.50;1.40;;;;;;;17.53;43.90;103267.94;5140412;27;20034;-50
2022/04/16 04:59:04;;;;;;;1.63;1.52;;;;;;;17.53;44.04;103271.47;5145026;27;20037;-53
2022/04/16 05:01:30;;;;;;;1.60;1.50;;;;;;;17.49;43.98;103267.28;5145744;27;20023;-52
2022/04/16 05:03:55;;;;;;;1.38;1.27;;;;;;;17.53;44.05;103281.38;5144807;27;20019;-48
2022/04/16 05:06:20;;;;;;;1.45;1.35;;;;;;;17.51;43.97;103277.94;5141904;27;20160;-54
2022/04/16 05:08:46;;;;;;;1.88;1.60;;;;;;;17.50;44.11;103285.16;5127985;27;20364;-53
2022/04/16 05:11:11;;;;;;;1.77;1.65;;;;;;;17.51;44.07;103292.25;5125037;27;20057;-53
2022/04/16 05:13:37;;;;;;;2.67;1.92;;;;;;;17.47;44.19;103282.66;5141834;27;20031;-50
2022/04/16 05:16:02;;;;;;;1.70;1.60;;;;;;;17.51;44.25;103300.31;5144982;27;20804;-53
2022/04/16 05:18:27;;;;;;;1.70;1.60;;;;;;;17.49;44.37;103297.72;5144802;27;20019;-46
2022/04/16 05:20:52;;;;;;;1.67;1.58;;;;;;;17.50;44.33;103301.31;5141327;27;20045;-46
2022/04/16 05:23:18;;;;;;;1.80;1.70;;;;;;;17.49;44.51;103296.84;5124711;27;20031;-51
2022/04/16 05:25:43;;;;;;;1.83;1.60;;;;;;;17.49;44.53;103297.72;5124137;27;20019;-48
2022/04/16 05:28:09;;;;;;;2.00;1.50;;;;;;;17.49;44.33;103303.09;5135246;27;20023;-48
2022/04/16 05:30:38;;;;;;;1.55;1.33;;;;;;;17.51;44.63;103302.16;5140702;27;20702;-51
2022/04/16 05:33:16;;;;;;;;;;;;;;;17.45;44.48;103298.03;5138487;27;20019;-51
2022/04/16 05:35:41;;;;;;;2.10;1.50;;;;;;;17.47;44.57;103305.03;5144418;27;19911;-48
2022/04/16 05:38:06;;;;;;;2.17;1.67;;;;;;;17.47;44.62;103307.72;5142500;27;20072;-51
2022/04/16 05:40:31;;;;;;;1.92;1.50;;;;;;;17.48;44.49;103308.59;5144295;27;20130;-49
2022/04/16 05:42:56;;;;;;;2.50;1.67;;;;;;;17.48;44.66;103304.06;5143995;27;20030;-54
2022/04/16 05:45:22;;;;;;;2.40;1.65;;;;;;;17.49;44.75;103305.78;5144454;27;20424;-48
2022/04/16 05:47:47;;;;;;;1.40;1.30;;;;;;;17.49;44.79;103311.16;5144275;27;20562;-49
2022/04/16 05:50:12;;;;;;;2.15;1.70;;;;;;;17.49;44.85;103308.47;5124132;27;20039;-49
2022/04/16 05:52:38;;;;;;;2.60;1.60;;;;;;;17.51;44.74;103312.91;5130911;27;20079;-49
2022/04/16 05:55:03;;;;;;;1.55;1.40;;;;;;;17.52;45.04;103306.56;5144280;27;20027;-50
2022/04/16 05:57:29;;;;;;;2.38;1.65;;;;;;;17.51;44.77;103310.22;5143804;27;20034;-50
2022/04/16 05:59:55;;;;;;;2.10;1.63;;;;;;;17.53;44.80;103310.97;5129639;27;20035;-50
2022/04/16 06:02:21;;;;;;;1.80;1.60;;;;;;;17.52;44.83;103307.44;5123908;27;20102;-51
2022/04/16 06:04:46;;;;;;;1.92;1.63;;;;;;;17.54;44.82;103310.00;5105811;28;20038;-50
2022/04/16 06:07:11;;;;;;;2.15;1.95;;;;;;;17.55;45.18;103317.13;5123985;28;20031;-49
2022/04/16 06:09:37;;;;;;;1.73;1.60;;;;;;;17.57;44.95;103317.88;5105810;28;20048;-55
2022/04/16 06:12:03;;;;;;;1.70;1.60;;;;;;;17.57;45.13;103315.19;5123660;28;20023;-50
2022/04/16 06:14:29;;;;;;;1.92;1.52;;;;;;;17.60;45.19;103328.44;5108592;28;20039;-52
2022/04/16 06:16:54;;;;;;;2.05;1.60;;;;;;;17.60;45.11;103332.00;5121511;28;20732;-50
2022/04/16 06:19:19;;;;;;;1.60;1.50;;;;;;;17.59;44.75;103324.91;5143541;28;20061;-51
2022/04/16 06:21:45;;;;;;;2.78;1.90;;;;;;;17.62;45.22;103327.38;5126235;28;20039;-51
2022/04/16 06:24:10;;;;;;;1.70;1.60;;;;;;;17.63;44.93;103330.94;5133266;28;20016;-48
2022/04/16 06:26:35;;;;;;;2.17;1.73;;;;;;;17.62;44.97;103329.19;5140499;28;20036;-50
2022/04/16 06:29:01;;;;;;;2.38;1.90;;;;;;;17.64;44.94;103330.81;5141735;28;20015;-51
2022/04/16 06:31:26;;;;;;;1.80;1.67;;;;;;;17.64;45.04;103325.44;5133154;28;20461;-52
2022/04/16 06:33:51;;;;;;;1.63;1.52;;;;;;;17.65;44.98;103329.84;5123699;28;20023;-51
2022/04/16 06:36:16;;;;;;;2.33;1.73;;;;;;;17.67;45.00;103332.44;5124031;28;20031;-53
2022/04/16 06:38:42;;;;;;;3.33;1.92;;;;;;;17.67;45.01;103329.75;5133901;27;20027;-53
2022/04/16 06:41:07;;;;;;;1.95;1.77;;;;;;;17.67;44.99;103325.25;5148132;27;20015;-49
2022/04/16 06:43:33;;;;;;;1.83;1.70;;;;;;;17.69;45.05;103330.53;5135965;27;20022;-48
2022/04/16 06:45:58;;;;;;;2.10;1.70;;;;;;;17.71;45.25;103334.84;5145855;27;20581;-51
2022/04/16 06:48:23;;;;;;;2.53;1.85;;;;;;;17.71;45.10;103329.47;5147901;27;20030;-52
2022/04/16 06:50:48;;;;;;;2.20;1.45;;;;;;;17.75;45.10;103335.50;5148065;27;20027;-48
2022/04/16 06:53:14;;;;;;;1.90;1.70;;;;;;;17.77;45.01;103335.44;5148168;27;20035;-47
2022/04/16 06:55:39;;;;;;;2.00;1.80;;;;;;;17.77;44.97;103330.91;5147980;27;20083;-49
2022/04/16 06:58:04;;;;;;;1.77;1.55;;;;;;;17.79;45.14;103325.41;5147268;27;20114;-47
2022/04/16 07:00:30;;;;;;;2.20;1.58;;;;;;;17.78;45.33;103326.38;5147899;27;20027;-49
2022/04/16 07:02:55;;;;;;;2.00;1.80;;;;;;;17.79;45.22;103322.72;5147820;27;20031;-49
2022/04/16 07:05:21;;;;;;;1.70;1.60;;;;;;;17.80;45.35;103330.72;5147665;27;20042;-51
2022/04/16 07:07:50;;;;;;;2.08;1.90;;;;;;;17.81;45.32;103324.38;5111860;27;20114;-51
2022/04/16 07:10:16;;;;;;;2.55;2.13;;;;;;;17.85;45.04;103330.41;5128679;27;20092;-51
2022/04/16 07:12:44;;;;;;;1.95;1.63;;;;;;;17.87;45.02;103342.78;5147344;27;20047;-49
2022/04/16 07:15:10;;;;;;;1.77;1.58;;;;;;;17.90;45.01;103341.72;5129230;27;20023;-49
2022/04/16 07:17:35;;;;;;;2.05;1.85;;;;;;;17.91;45.27;103338.06;5147592;27;20044;-49
2022/04/16 07:20:00;;;;;;;1.95;1.73;;;;;;;17.91;45.01;103347.00;5147344;27;20030;-53
2022/04/16 07:22:25;;;;;;;1.98;1.70;;;;;;;17.90;45.21;103336.34;5147412;27;20057;-50
2022/04/16 07:24:51;;;;;;;2.08;1.70;;;;;;;17.89;45.16;103334.63;5147492;27;20031;-48
2022/04/16 07:27:16;;;;;;;2.53;1.92;;;;;;;17.91;45.26;103336.22;5147087;27;20897;-53
2022/04/16 07:29:42;;;;;;;1.80;1.50;;;;;;;17.89;45.05;103330.09;5147463;27;20033;-51
2022/04/16 07:32:07;;;;;;;1.88;1.70;;;;;;;17.92;45.22;103342.47;5147306;27;20046;-51
2022/04/16 07:34:33;;;;;;;1.85;1.73;;;;;;;17.91;45.07;103336.22;5147084;27;20118;-54
2022/04/16 07:36:58;;;;;;;1.60;1.50;;;;;;;17.92;44.93;103345.16;5147386;27;20057;-54
2022/04/16 07:39:23;;;;;;;1.60;1.50;;;;;;;17.92;44.92;103339.78;5145864;27;20035;-54
2022/04/16 07:41:51;;;;;;;2.00;1.90;;;;;;;17.92;45.26;103345.16;5147043;27;20049;-54
2022/04/16 07:44:16;;;;;;;1.60;1.50;;;;;;;17.91;45.14;103338.91;5146882;27;20100;-50
2022/04/16 07:46:42;;;;;;;1.80;1.70;;;;;;;17.92;44.94;103345.16;5147464;27;20037;-52
2022/04/16 07:49:07;;;;;;;1.63;1.52;;;;;;;17.93;45.14;103345.06;5146753;27;20032;-49
2022/04/16 07:51:32;;;;;;;1.85;1.60;;;;;;;17.93;45.19;103341.53;5147202;27;20400;-51
2022/04/16 07:53:58;;;;;;;1.95;1.70;;;;;;;17.86;45.42;103330.28;5147097;27;20475;-52
2022/04/16 07:56:23;;;;;;;2.05;1.52;;;;;;;17.91;45.26;103336.22;5147176;27;20845;-49
2022/04/16 07:58:50;;;;;;;1.75;1.65;;;;;;;17.93;45.08;103347.75;5145081;27;20403;-48
2022/04/16 08:01:15;;;;;;;2.10;1.70;;;;;;;17.93;45.12;103346.91;5146359;27;20023;-52
2022/04/16 08:03:41;;;;;;;1.83;1.50;;;;;;;17.93;45.26;103342.38;5129980;27;20114;-51
2022/04/16 08:06:06;;;;;;;1.40;1.30;;;;;;;17.93;44.93;103350.47;5126100;28;20031;-52
2022/04/16 08:08:31;;;;;;;1.70;1.60;;;;;;;17.91;45.21;103347.00;5131304;27;20027;-53
2022/04/16 08:10:57;;;;;;;1.70;1.60;;;;;;;17.93;45.27;103352.28;5146748;27;20172;-51
2022/04/16 08:13:22;;;;;;;1.38;1.27;;;;;;;17.93;45.11;103350.47;5146243;27;20027;-51
2022/04/16 08:15:48;;;;;;;1.95;1.73;;;;;;;17.93;45.24;103357.66;5146565;27;20038;-48
2022/04/16 08:18:14;;;;;;;1.67;1.52;;;;;;;17.90;45.16;103353.34;5146523;27;20054;-49
2022/04/16 08:20:39;;;;;;;1.75;1.60;;;;;;;17.94;45.09;103359.38;5146357;27;20031;-50
2022/04/16 08:23:06;;;;;;;1.70;1.33;;;;;;;17.95;45.18;103355.72;5146669;27;20039;-50
2022/04/16 08:28:01;;;;;;;;;;;;;;;17.91;45.22;103359.59;5146421;27;20411;-52
2022/04/16 08:30:26;;;;;;;1.98;1.65;;;;;;;17.92;45.03;103366.69;5146329;27;19911;-49
2022/04/16 08:32:52;;;;;;;1.90;1.70;;;;;;;17.94;45.21;103365.63;5146429;27;20035;-50
2022/04/16 08:35:18;;;;;;;1.88;1.63;;;;;;;17.94;45.08;103362.94;5145757;27;20042;-49
2022/04/16 08:37:43;;;;;;;1.67;1.40;;;;;;;17.96;45.30;103366.38;5146321;27;20030;-51
2022/04/16 08:40:09;;;;;;;2.00;1.80;;;;;;;17.96;45.18;103366.38;5145691;27;20107;-47
2022/04/16 08:42:36;;;;;;;1.60;1.50;;;;;;;18.01;45.10;103370.59;5145923;27;20119;-48
2022/04/16 08:45:07;;;;;;;1.40;1.30;;;;;;;18.02;44.84;103370.50;5145996;27;20020;-49
2022/04/16 08:47:33;;;;;;;2.28;1.52;;;;;;;18.04;45.20;103373.09;5145780;27;20077;-51
2022/04/16 08:50:03;;;;;;;2.05;1.60;;;;;;;18.05;45.08;103369.41;5145685;27;20098;-54
2022/04/16 08:52:31;;;;;;;1.80;1.40;;;;;;;18.06;44.93;103379.25;5145776;27;20027;-51
2022/04/16 08:54:57;;;;;;;1.63;1.50;;;;;;;18.08;45.03;103371.91;5145628;27;20056;-50
2022/04/16 08:57:22;;;;;;;2.08;1.70;;;;;;;18.09;45.13;103379.88;5145410;27;20035;-52
2022/04/16 08:59:50;;;;;;;1.85;1.60;;;;;;;18.09;45.11;103382.56;5145744;27;20037;-49
2022/04/16 09:02:15;;;;;;;1.65;1.50;;;;;;;18.12;44.83;103378.81;5126683;27;20031;-47
2022/04/16 09:04:41;;;;;;;1.67;1.58;;;;;;;18.11;44.83;103374.41;5126872;27;20037;-48
2022/04/16 09:07:06;;;;;;;1.77;1.58;;;;;;;18.12;45.04;103368.06;5145466;27;20061;-49
2022/04/16 09:09:31;;;;;;;1.60;1.50;;;;;;;18.14;44.87;103368.81;5145023;27;20039;-50
2022/04/16 09:11:56;;;;;;;1.73;1.40;;;;;;;18.13;44.90;103365.25;5145174;27;20027;-52
2022/04/16 09:14:35;;;;;;;1.50;1.40;;;;;;;18.15;44.75;103368.72;5145460;27;20035;-50
2022/04/16 09:17:01;;;;;;;1.70;1.52;;;;;;;18.07;45.07;103354.03;5145552;27;20015;-49
2022/04/16 09:19:29;;;;;;;1.60;1.20;;;;;;;18.08;45.06;103351.22;5145090;27;20046;-50
2022/04/16 09:21:55;;;;;;;2.08;1.55;;;;;;;18.13;44.91;103357.16;5145313;27;20019;-50
2022/04/16 09:24:20;;;;;;;1.40;1.30;;;;;;;18.14;44.74;103361.59;5126835;27;20103;-48
2022/04/16 09:26:49;;;;;;;1.67;1.58;;;;;;;18.14;44.75;103358.91;5145262;27;20070;-51
2022/04/16 09:29:15;;;;;;;1.50;1.40;;;;;;;18.14;45.10;103347.28;5145128;27;20051;-50
2022/04/16 09:31:45;;;;;;;1.98;1.42;;;;;;;18.15;44.90;103360.63;5126819;27;20033;-51
2022/04/16 09:34:21;;;;;;;1.60;1.50;;;;;;;18.16;44.85;103354.28;5110208;27;20114;-48
2022/04/16 09:36:48;;;;;;;1.95;1.40;;;;;;;18.14;44.83;103342.75;5144910;27;20030;-49
2022/04/16 09:39:13;;;;;;;2.08;1.67;;;;;;;18.17;44.94;103355.13;5125563;27;20043;-50
2022/04/16 09:41:40;;;;;;;2.00;1.80;;;;;;;18.18;44.71;103351.47;5145248;27;20114;-50
2022/04/16 09:44:30;;;;;;;1.40;1.30;;;;;;;18.18;45.07;103341.59;5144423;27;20499;-49
2022/04/16 09:46:56;;;;;;;2.03;1.42;;;;;;;18.14;45.01;103342.75;5124416;28;20640;-47
2022/04/16 09:49:22;;;;;;;1.35;1.25;;;;;;;18.15;45.01;103346.31;5124159;28;20020;-48
2022/04/16 09:51:49;;;;;;;1.98;1.33;;;;;;;18.19;44.76;103343.31;5124224;28;20016;-51
2022/04/16 09:54:15;;;;;;;1.40;1.30;;;;;;;18.21;44.87;103345.88;5124404;28;20049;-52
2022/04/16 09:56:45;;;;;;;1.33;1.23;;;;;;;18.22;44.79;103342.22;5142876;27;20055;-50
2022/04/16 09:59:12;;;;;;;1.67;1.52;;;;;;;18.19;45.06;103331.69;5126336;27;20460;-53
2022/04/16 10:01:38;;;;;;;1.95;1.60;;;;;;;18.23;44.84;103331.34;5144568;27;20395;-50
2022/04/16 10:04:06;;;;;;;2.13;1.52;;;;;;;18.25;44.74;103328.53;5144694;27;20015;-51
2022/04/16 10:06:31;;;;;;;1.40;1.30;;;;;;;18.23;44.83;103325.13;5144246;27;20074;-53
2022/04/16 10:09:00;;;;;;;1.95;1.75;;;;;;;18.27;44.86;103329.31;5108825;27;20090;-51
2022/04/16 10:14:24;;;;;;;1.23;1.13;;;;;;;18.30;44.93;103328.22;5144102;27;20083;-52
2022/04/16 10:16:58;;;;;;;1.60;1.33;;;;;;;18.30;44.86;103328.22;5125937;28;20023;-52
2022/04/16 10:19:23;;;;;;;1.33;1.23;;;;;;;18.28;45.08;103324.78;5120908;28;20031;-51
2022/04/16 10:21:53;;;;;;;1.50;1.40;;;;;;;18.29;44.82;103321.97;5144534;28;20101;-51
2022/04/16 10:24:24;;;;;;;1.30;1.20;;;;;;;18.33;44.97;103322.63;5144576;28;20404;-46
2022/04/16 10:26:49;;;;;;;1.33;1.23;;;;;;;18.33;44.79;103328.88;5125570;28;20035;-49
2022/04/16 10:29:18;;;;;;;1.60;1.25;;;;;;;18.35;44.79;103324.28;5125506;28;20054;-53
2022/04/16 10:31:50;;;;;;;1.48;1.38;;;;;;;18.36;44.72;103317.06;5144234;28;20023;-49
2022/04/16 10:34:18;;;;;;;1.45;1.20;;;;;;;18.35;45.09;103324.28;5137037;28;20088;-50
2022/04/16 10:36:52;;;;;;;1.40;1.30;;;;;;;18.36;45.08;103322.44;5125590;28;20031;-50
2022/04/16 10:39:19;;;;;;;1.17;1.08;;;;;;;18.35;44.92;103312.59;5135394;28;20095;-48
2022/04/16 10:42:01;;;;;;;1.30;1.20;;;;;;;18.38;45.03;103320.47;5143796;28;20518;-51
2022/04/16 10:44:29;;;;;;;1.30;1.20;;;;;;;18.39;44.85;103328.47;5129355;28;20518;-50
2022/04/16 10:46:55;;;;;;;1.70;1.60;;;;;;;18.39;45.26;103322.19;5138426;28;20031;-50
2022/04/16 10:49:25;;;;;;;1.52;1.20;;;;;;;18.42;44.92;103330.06;5123354;28;20020;-49
2022/04/16 10:51:52;;;;;;;1.25;1.15;;;;;;;18.40;45.20;103327.50;5120494;28;20034;-48
2022/04/16 10:54:34;;;;;;;1.33;1.23;;;;;;;18.44;45.28;103328.16;5117378;28;20022;-51
2022/04/16 10:57:00;;;;;;;2.95;1.30;;;;;;;18.44;45.32;103328.16;5139443;28;20028;-49
2022/04/16 10:59:45;;;;;;;1.02;1.00;;;;;;;18.47;45.21;103338.69;5123575;28;20049;-48
2022/04/16 11:02:25;;;;;;;1.15;1.05;;;;;;;18.46;45.33;103331.59;5123111;28;20054;-47
2022/04/16 11:05:03;;;;;;;1.60;1.30;;;;;;;18.47;45.33;103325.22;5122913;28;20023;-52
2022/04/16 11:07:29;;;;;;;1.40;1.27;;;;;;;18.46;45.31;103335.13;5127478;28;20149;-52
2022/04/16 11:09:55;;;;;;;1.35;0.98;;;;;;;18.47;45.31;103327.91;5143334;28;20058;-49
2022/04/16 11:12:21;;;;;;;1.40;1.20;;;;;;;18.44;45.42;103323.63;5143217;28;20383;-49
2022/04/16 11:14:50;;;;;;;1.23;1.13;;;;;;;18.51;45.25;103336.66;5144175;28;20083;-51
2022/04/16 11:17:15;;;;;;;1.20;1.00;;;;;;;18.51;45.38;103326.72;5143958;28;20031;-50
2022/04/16 11:19:44;;;;;;;1.63;1.20;;;;;;;18.52;45.11;103327.59;5143379;28;20080;-49
2022/04/16 11:22:09;;;;;;;1.63;1.25;;;;;;;18.49;45.42;103318.78;5143882;28;20027;-51
2022/04/16 11:24:34;;;;;;;1.25;1.15;;;;;;;18.52;45.59;103323.09;5146164;27;20084;-49
2022/04/16 11:35:13;;;;;;;1.17;1.05;;;;;;;18.54;45.32;103315.75;5147296;27;20038;-50
2022/04/16 11:37:38;;;;;;;1.30;1.20;;;;;;;18.57;45.70;103314.69;5147355;27;20011;-49
2022/04/16 11:40:05;;;;;;;1.25;1.15;;;;;;;18.58;45.75;103317.25;5146849;27;20071;-50
2022/04/16 11:42:31;;;;;;;1.30;1.20;;;;;;;18.59;45.59;103312.72;5146769;27;20030;-51
2022/04/16 11:44:57;;;;;;;1.48;1.38;;;;;;;18.60;45.75;103304.53;5147268;27;20079;-52
2022/04/16 11:47:35;;;;;;;1.15;1.05;;;;;;;18.62;45.65;103312.53;5146210;27;20047;-50